createdAt,value
2022-07-25T00:02:09.155Z,12.50
2022-07-25T00:04:36.359Z,11.77
2022-07-25T00:07:03.506Z,11.67
2022-07-25T00:09:30.370Z,15.23
2022-07-25T00:11:57.486Z,11.27
2022-07-25T00:14:24.458Z,13.37
2022-07-25T00:16:51.300Z,13.77
2022-07-25T00:19:18.750Z,12.83
2022-07-25T00:21:45.605Z,11.43
2022-07-25T00:24:12.371Z,11.77
2022-07-25T00:26:40.475Z,12.10
2022-07-25T00:29:07.976Z,11.60
2022-07-25T00:31:35.436Z,14.30
2022-07-25T00:34:03.182Z,12.33
2022-07-25T00:36:30.146Z,12.83
2022-07-25T00:38:56.933Z,11.90
2022-07-25T00:41:23.960Z,15.33
2022-07-25T00:43:50.963Z,12.03
2022-07-25T00:46:19.092Z,13.03
2022-07-25T00:48:46.378Z,15.93
2022-07-25T00:51:13.402Z,11.77
2022-07-25T00:53:40.235Z,12.63
2022-07-25T00:56:07.740Z,13.27
2022-07-25T00:58:35.389Z,11.43
2022-07-25T01:01:02.613Z,12.77
2022-07-25T01:03:29.596Z,15.53
2022-07-25T01:05:56.605Z,12.73
2022-07-25T01:08:23.946Z,13.73
2022-07-25T01:10:51.161Z,12.43
2022-07-25T01:13:18.033Z,11.83
2022-07-25T01:15:48.086Z,13.30
2022-07-25T01:18:15.017Z,12.17
2022-07-25T01:20:41.992Z,11.70
2022-07-25T01:23:08.794Z,12.27
2022-07-25T01:25:35.661Z,14.57
2022-07-25T01:28:03.110Z,13.47
2022-07-25T01:30:30.114Z,12.37
2022-07-25T01:32:56.988Z,10.83
2022-07-25T01:35:24.057Z,10.83
2022-07-25T01:37:51.183Z,11.87
2022-07-25T01:40:18.017Z,10.80
2022-07-25T01:42:45.371Z,11.83
2022-07-25T01:45:13.168Z,12.23
2022-07-25T01:47:40.188Z,13.27
2022-07-25T01:50:08.052Z,12.00
2022-07-25T01:52:36.503Z,12.40
2022-07-25T01:55:03.796Z,13.23
2022-07-25T01:57:33.266Z,11.70
2022-07-25T02:00:00.330Z,13.77
2022-07-25T02:02:27.333Z,12.57
2022-07-25T02:04:54.395Z,11.97
2022-07-25T02:07:21.344Z,12.60
2022-07-25T02:09:50.151Z,11.63
2022-07-25T02:12:20.396Z,12.77
2022-07-25T02:14:47.194Z,13.57
2022-07-25T02:17:14.170Z,15.10
2022-07-25T02:19:41.036Z,10.57
2022-07-25T02:22:08.379Z,14.93
2022-07-25T02:24:37.089Z,16.10
2022-07-25T02:27:05.158Z,12.43
2022-07-25T02:29:32.392Z,12.80
2022-07-25T02:31:59.541Z,14.23
2022-07-25T02:34:26.344Z,12.73
2022-07-25T02:36:53.365Z,11.83
2022-07-25T02:39:21.220Z,12.03
2022-07-25T02:41:48.071Z,13.77
2022-07-25T02:44:14.875Z,11.83
2022-07-25T02:46:41.726Z,12.67
2022-07-25T02:49:09.053Z,12.83
2022-07-25T02:51:35.893Z,14.03
2022-07-25T02:54:02.765Z,15.07
2022-07-25T02:56:30.308Z,14.63
2022-07-25T02:58:59.057Z,12.33
2022-07-25T03:01:26.051Z,12.40
2022-07-25T03:03:53.102Z,13.07
2022-07-25T03:06:19.946Z,12.43
2022-07-25T03:08:46.750Z,13.03
2022-07-25T03:11:14.180Z,13.73
2022-07-25T03:13:41.117Z,11.90
2022-07-25T03:16:08.677Z,14.10
2022-07-25T03:18:35.562Z,12.80
2022-07-25T03:21:02.553Z,13.03
2022-07-25T03:23:31.006Z,17.13
2022-07-25T03:25:58.121Z,13.83
2022-07-25T03:28:25.286Z,13.07
2022-07-25T03:30:52.975Z,12.67
2022-07-25T03:33:20.175Z,12.03
2022-07-25T03:35:47.115Z,12.30
2022-07-25T03:38:14.146Z,11.87
2022-07-25T03:40:41.005Z,11.33
2022-07-25T03:43:07.875Z,13.27
2022-07-25T03:45:34.903Z,14.30
2022-07-25T03:48:02.063Z,13.27
2022-07-25T03:50:28.942Z,14.60
2022-07-25T03:52:55.987Z,13.00
2022-07-25T03:55:22.869Z,14.43
2022-07-25T03:57:49.740Z,12.67
2022-07-25T04:00:17.649Z,13.37
2022-07-25T04:02:44.861Z,11.67
2022-07-25T04:05:11.756Z,14.97
2022-07-25T04:07:38.959Z,12.37
2022-07-25T04:10:06.862Z,14.67
2022-07-25T04:12:33.948Z,14.90
2022-07-25T04:15:01.238Z,12.93
2022-07-25T04:17:28.270Z,14.87
2022-07-25T04:19:55.056Z,11.60
2022-07-25T04:22:22.481Z,12.63
2022-07-25T04:24:49.266Z,12.23
2022-07-25T04:27:16.692Z,14.40
2022-07-25T04:29:43.662Z,12.10
2022-07-25T04:32:10.713Z,11.77
2022-07-25T04:34:37.560Z,13.53
2022-07-25T04:37:04.387Z,15.37
2022-07-25T04:39:31.394Z,11.57
2022-07-25T04:41:58.481Z,12.57
2022-07-25T04:44:25.294Z,11.50
2022-07-25T04:46:52.261Z,13.37
2022-07-25T04:49:19.114Z,13.37
2022-07-25T04:51:45.919Z,17.63
2022-07-25T04:54:12.752Z,14.03
2022-07-25T04:56:39.610Z,14.40
2022-07-25T04:59:07.192Z,13.67
2022-07-25T05:01:35.210Z,13.93
2022-07-25T05:04:02.311Z,14.77
2022-07-25T05:06:29.285Z,14.87
2022-07-25T05:08:56.159Z,12.50
2022-07-25T05:11:23.034Z,13.00
2022-07-25T05:13:49.852Z,12.27
2022-07-25T05:16:16.919Z,14.37
2022-07-25T05:18:43.843Z,13.10
2022-07-25T05:21:13.537Z,12.97
2022-07-25T05:23:41.514Z,12.47
2022-07-25T05:26:08.495Z,13.63
2022-07-25T05:28:35.683Z,14.77
2022-07-25T05:31:02.557Z,12.53
2022-07-25T05:33:29.681Z,13.20
2022-07-25T05:35:56.561Z,12.67
2022-07-25T05:38:23.543Z,12.60
2022-07-25T05:40:52.153Z,12.90
2022-07-25T05:43:19.280Z,14.30
2022-07-25T05:45:47.419Z,13.23
2022-07-25T05:48:15.035Z,11.33
2022-07-25T05:50:42.019Z,12.20
2022-07-25T05:53:09.291Z,11.03
2022-07-25T05:55:36.107Z,13.07
2022-07-25T05:58:08.580Z,14.43
2022-07-25T06:00:36.005Z,13.27
2022-07-25T06:03:03.092Z,13.30
2022-07-25T06:05:30.270Z,11.03
2022-07-25T06:07:57.116Z,12.33
2022-07-25T06:10:24.345Z,13.73
2022-07-25T06:12:51.217Z,11.83
2022-07-25T06:15:22.833Z,15.37
2022-07-25T06:17:54.104Z,11.83
2022-07-25T06:20:20.997Z,11.27
2022-07-25T06:22:47.958Z,12.10
2022-07-25T06:25:15.191Z,12.97
2022-07-25T06:27:42.366Z,11.80
2022-07-25T06:30:19.233Z,12.70
2022-07-25T06:32:46.907Z,14.73
2022-07-25T06:35:13.685Z,13.03
2022-07-25T06:37:40.776Z,12.53
2022-07-25T06:40:09.078Z,9.90
2022-07-25T06:42:46.019Z,11.70
2022-07-25T06:45:13.875Z,10.80
2022-07-25T06:47:42.020Z,15.20
2022-07-25T06:50:11.652Z,13.17
2022-07-25T06:52:39.219Z,10.77
2022-07-25T06:55:07.582Z,13.83
2022-07-25T06:57:34.565Z,11.50
2022-07-25T07:00:01.692Z,11.83
2022-07-25T07:02:28.554Z,13.00
2022-07-25T07:04:55.517Z,10.53
2022-07-25T07:07:22.405Z,14.87
2022-07-25T07:09:49.184Z,11.73
2022-07-25T07:12:15.973Z,12.83
2022-07-25T07:14:44.382Z,14.23
2022-07-25T07:17:11.521Z,11.40
2022-07-25T07:19:44.428Z,10.73
2022-07-25T07:22:11.690Z,11.73
2022-07-25T07:24:44.053Z,11.53
2022-07-25T07:27:12.094Z,13.52
2022-07-25T07:29:39.005Z,14.70
2022-07-25T07:32:07.089Z,11.13
2022-07-25T07:34:33.945Z,12.53
2022-07-25T07:37:01.540Z,10.32
2022-07-25T07:39:28.453Z,13.50
2022-07-25T07:41:55.322Z,13.43
2022-07-25T07:44:22.475Z,10.43
2022-07-25T07:46:49.436Z,12.60
2022-07-25T07:49:16.439Z,12.85
2022-07-25T07:51:43.808Z,12.05
2022-07-25T07:54:28.973Z,10.57
2022-07-25T07:56:55.895Z,12.27
2022-07-25T07:59:22.737Z,11.77
2022-07-25T08:01:49.639Z,13.10
2022-07-25T08:04:16.954Z,11.55
2022-07-25T08:06:43.798Z,13.02
2022-07-25T08:09:10.670Z,10.88
2022-07-25T08:11:37.446Z,12.38
2022-07-25T08:14:05.484Z,13.52
2022-07-25T08:16:33.320Z,12.25
2022-07-25T08:19:00.243Z,11.98
2022-07-25T08:21:27.280Z,16.10
2022-07-25T08:23:54.332Z,12.90
2022-07-25T08:26:21.160Z,12.52
2022-07-25T08:28:52.585Z,13.10
2022-07-25T08:31:27.997Z,11.57
2022-07-25T08:33:55.127Z,10.27
2022-07-25T08:36:21.949Z,11.57
2022-07-25T08:38:48.736Z,10.50
2022-07-25T08:41:15.647Z,14.23
2022-07-25T08:43:44.564Z,10.98
2022-07-25T08:46:12.312Z,12.48
2022-07-25T08:48:40.359Z,12.70
2022-07-25T08:51:08.109Z,10.68
2022-07-25T08:53:36.735Z,13.48
2022-07-25T08:56:11.593Z,11.30
2022-07-25T08:58:41.822Z,13.43
2022-07-25T09:01:11.544Z,11.07
2022-07-25T09:03:38.896Z,9.90
2022-07-25T09:06:22.901Z,11.32
2022-07-25T09:08:57.527Z,11.50
2022-07-25T09:11:30.330Z,9.35
2022-07-25T09:14:05.840Z,10.27
2022-07-25T09:16:43.204Z,12.30
2022-07-25T09:19:22.547Z,11.20
2022-07-25T09:22:07.520Z,11.13
2022-07-25T09:24:44.444Z,9.40
2022-07-25T09:27:12.863Z,10.38
2022-07-25T09:29:42.501Z,10.95
2022-07-25T09:32:20.603Z,10.75
2022-07-25T09:34:49.177Z,10.80
2022-07-25T09:37:18.435Z,9.63
2022-07-25T09:39:50.484Z,10.20
2022-07-25T09:42:22.406Z,9.18
2022-07-25T09:45:04.139Z,9.50
2022-07-25T09:47:33.872Z,10.13
2022-07-25T09:50:01.128Z,10.90
2022-07-25T09:52:28.063Z,10.35
2022-07-25T09:54:54.873Z,9.88
2022-07-25T09:57:24.036Z,11.05
2022-07-25T09:59:50.880Z,15.95
2022-07-25T10:02:36.439Z,11.07
2022-07-25T10:05:06.361Z,9.57
2022-07-25T10:07:38.093Z,11.77
2022-07-25T10:10:05.940Z,9.80
2022-07-25T10:12:33.102Z,10.65
2022-07-25T10:15:06.378Z,9.38
2022-07-25T10:17:34.081Z,8.90
2022-07-25T10:20:01.335Z,9.63
2022-07-25T10:22:56.290Z,10.30
2022-07-25T10:25:24.134Z,8.95
2022-07-25T10:28:00.875Z,8.60
2022-07-25T10:30:34.445Z,10.07
2022-07-25T10:33:05.766Z,10.05
2022-07-25T10:35:33.269Z,9.60
2022-07-25T10:38:02.789Z,9.25
2022-07-25T10:40:44.732Z,8.60
2022-07-25T10:43:19.217Z,10.10
2022-07-25T10:45:55.011Z,9.68
2022-07-25T10:48:30.485Z,9.70
2022-07-25T10:51:09.277Z,10.13
2022-07-25T10:53:48.969Z,9.50
2022-07-25T10:56:19.874Z,9.02
2022-07-25T10:59:01.412Z,8.50
2022-07-25T11:01:33.668Z,8.13
2022-07-25T11:04:05.885Z,7.80
2022-07-25T11:06:37.839Z,8.18
2022-07-25T11:09:19.123Z,10.27
2022-07-25T11:11:49.535Z,9.70
2022-07-25T11:14:20.552Z,9.23
2022-07-25T11:16:50.452Z,9.13
2022-07-25T11:19:17.813Z,9.90
2022-07-25T11:21:52.446Z,12.35
2022-07-25T11:24:19.701Z,7.65
2022-07-25T11:26:51.446Z,8.32
2022-07-25T11:29:27.183Z,7.65
2022-07-25T11:31:56.557Z,8.30
2022-07-25T11:34:27.459Z,8.95
2022-07-25T11:36:57.346Z,7.43
2022-07-25T11:39:29.302Z,8.43
2022-07-25T11:42:17.847Z,7.03
2022-07-25T11:44:50.373Z,6.85
2022-07-25T11:47:33.449Z,7.65
2022-07-25T11:50:03.717Z,8.88
2022-07-25T11:52:33.009Z,8.48
2022-07-25T11:55:03.557Z,9.35
2022-07-25T11:57:33.468Z,7.70
2022-07-25T12:00:02.748Z,7.63
2022-07-25T12:02:36.898Z,8.27
2022-07-25T12:05:05.142Z,7.45
2022-07-25T12:07:40.927Z,8.02
2022-07-25T12:10:10.458Z,7.85
2022-07-25T12:12:48.694Z,7.43
2022-07-25T12:15:19.843Z,8.25
2022-07-25T12:17:47.480Z,7.82
2022-07-25T12:20:22.730Z,8.43
2022-07-25T12:22:52.039Z,7.40
2022-07-25T12:25:19.263Z,7.53
2022-07-25T12:27:46.326Z,10.77
2022-07-25T12:30:14.616Z,6.95
2022-07-25T12:32:42.394Z,7.07
2022-07-25T12:35:11.220Z,8.45
2022-07-25T12:37:38.439Z,6.70
2022-07-25T12:40:06.669Z,7.35
2022-07-25T12:42:33.495Z,6.95
2022-07-25T12:45:00.525Z,7.35
2022-07-25T12:47:28.603Z,6.57
2022-07-25T12:49:55.965Z,9.70
2022-07-25T12:52:22.908Z,5.78
2022-07-25T12:54:49.716Z,6.53
2022-07-25T12:57:17.140Z,6.13
2022-07-25T12:59:43.973Z,6.40
2022-07-25T13:02:11.268Z,7.68
2022-07-25T13:04:38.733Z,7.00
2022-07-25T13:07:06.098Z,7.22
2022-07-25T13:09:33.404Z,7.82
2022-07-25T13:12:00.305Z,7.05
2022-07-25T13:14:27.154Z,6.97
2022-07-25T13:16:54.097Z,12.90
2022-07-25T13:19:20.955Z,7.97
2022-07-25T13:21:47.758Z,7.97
2022-07-25T13:24:14.755Z,7.75
2022-07-25T13:26:41.640Z,10.25
2022-07-25T13:29:11.584Z,7.60
2022-07-25T13:31:41.065Z,9.18
2022-07-25T13:34:09.383Z,7.55
2022-07-25T13:36:39.444Z,9.73
2022-07-25T13:39:06.807Z,8.27
2022-07-25T13:41:33.884Z,7.75
2022-07-25T13:44:00.829Z,7.57
2022-07-25T13:46:27.597Z,11.32
2022-07-25T13:48:55.573Z,8.52
2022-07-25T13:51:22.560Z,9.02
2022-07-25T13:53:49.784Z,9.70
2022-07-25T13:56:16.577Z,10.10
2022-07-25T13:58:43.612Z,8.25
2022-07-25T14:01:11.671Z,8.73
2022-07-25T14:03:38.934Z,10.18
2022-07-25T14:06:06.334Z,9.10
2022-07-25T14:08:33.219Z,8.63
2022-07-25T14:11:00.939Z,8.55
2022-07-25T14:13:27.772Z,10.90
2022-07-25T14:15:55.651Z,9.93
2022-07-25T14:18:22.494Z,10.38
2022-07-25T14:20:50.108Z,9.95
2022-07-25T14:23:17.255Z,9.82
2022-07-25T14:25:44.116Z,8.63
2022-07-25T14:28:11.129Z,8.60
2022-07-25T14:30:38.532Z,10.60
2022-07-25T14:33:05.417Z,8.45
2022-07-25T14:35:32.933Z,9.43
2022-07-25T14:38:00.024Z,9.30
2022-07-25T14:40:27.020Z,9.38
2022-07-25T14:42:54.078Z,10.02
2022-07-25T14:45:21.912Z,9.13
2022-07-25T14:47:48.889Z,9.70
2022-07-25T14:50:16.332Z,11.05
2022-07-25T14:52:43.228Z,9.02
2022-07-25T14:55:10.164Z,9.43
2022-07-25T14:57:37.307Z,9.73
2022-07-25T15:00:05.641Z,11.70
2022-07-25T15:02:32.536Z,11.35
2022-07-25T15:04:59.452Z,10.82
2022-07-25T15:07:26.340Z,10.07
2022-07-25T15:09:53.213Z,11.27
2022-07-25T15:12:20.803Z,8.45
2022-07-25T15:14:47.633Z,14.05
2022-07-25T15:17:14.485Z,12.65
2022-07-25T15:19:41.281Z,13.20
2022-07-25T15:22:08.183Z,9.70
2022-07-25T15:24:49.536Z,9.63
2022-07-25T15:27:21.792Z,14.30
2022-07-25T15:29:48.592Z,14.10
2022-07-25T15:32:15.572Z,15.35
2022-07-25T15:34:42.442Z,12.52
2022-07-25T15:37:09.711Z,15.48
2022-07-25T15:39:36.493Z,12.38
2022-07-25T15:42:03.292Z,12.30
2022-07-25T15:44:32.596Z,10.18
2022-07-25T15:46:59.566Z,9.52
2022-07-25T15:49:26.512Z,10.82
2022-07-25T15:51:53.404Z,10.48
2022-07-25T15:54:20.245Z,11.23
2022-07-25T15:56:47.335Z,8.82
2022-07-25T15:59:14.603Z,10.25
2022-07-25T16:01:43.391Z,10.85
2022-07-25T16:04:11.319Z,9.02
2022-07-25T16:06:38.225Z,9.32
2022-07-25T16:09:06.394Z,10.35
2022-07-25T16:11:35.639Z,10.43
2022-07-25T16:14:02.489Z,8.73
2022-07-25T16:16:29.390Z,8.70
2022-07-25T16:18:57.704Z,8.43
2022-07-25T16:21:24.556Z,10.48
2022-07-25T16:23:51.405Z,8.23
2022-07-25T16:26:18.356Z,7.93
2022-07-25T16:28:46.659Z,8.60
2022-07-25T16:31:13.697Z,7.20
2022-07-25T16:33:41.090Z,9.00
2022-07-25T16:36:08.557Z,7.50
2022-07-25T16:38:35.383Z,8.60
2022-07-25T16:41:02.265Z,6.90
2022-07-25T16:43:29.105Z,12.25
2022-07-25T16:45:55.928Z,8.98
2022-07-25T16:48:22.830Z,7.43
2022-07-25T16:50:49.655Z,7.00
2022-07-25T16:53:16.541Z,9.90
2022-07-25T16:55:43.394Z,8.02
2022-07-25T16:58:10.333Z,10.30
2022-07-25T17:00:38.170Z,7.78
2022-07-25T17:03:05.313Z,8.68
2022-07-25T17:05:32.409Z,8.95
2022-07-25T17:07:59.883Z,8.18
2022-07-25T17:10:27.811Z,7.47
2022-07-25T17:12:54.679Z,8.63
2022-07-25T17:15:21.928Z,8.35
2022-07-25T17:17:48.879Z,8.82
2022-07-25T17:20:16.022Z,7.80
2022-07-25T17:22:42.860Z,7.82
2022-07-25T17:25:09.950Z,9.18
2022-07-25T17:27:37.246Z,10.25
2022-07-25T17:30:05.421Z,10.30
2022-07-25T17:32:32.284Z,9.75
2022-07-25T17:34:59.707Z,7.65
2022-07-25T17:37:27.815Z,7.20
2022-07-25T17:39:55.111Z,7.70
2022-07-25T17:42:22.326Z,8.90
2022-07-25T17:44:50.264Z,7.72
2022-07-25T17:47:17.677Z,10.90
2022-07-25T17:49:45.226Z,9.45
2022-07-25T17:52:15.953Z,8.95
2022-07-25T17:54:43.451Z,9.88
2022-07-25T17:57:10.512Z,8.25
2022-07-25T17:59:37.428Z,9.07
2022-07-25T18:02:04.332Z,8.73
2022-07-25T18:04:31.547Z,8.93
2022-07-25T18:06:58.720Z,8.52
2022-07-25T18:09:25.582Z,7.13
2022-07-25T18:11:52.487Z,7.10
2022-07-25T18:14:19.327Z,9.38
2022-07-25T18:16:46.484Z,10.30
2022-07-25T18:19:13.944Z,7.55
2022-07-25T18:21:40.970Z,7.82
2022-07-25T18:24:08.246Z,11.45
2022-07-25T18:26:35.368Z,11.68
2022-07-25T18:29:02.224Z,5.78
2022-07-25T18:31:29.021Z,8.70
2022-07-25T18:33:56.036Z,7.80
2022-07-25T18:36:23.140Z,8.75
2022-07-25T18:38:53.665Z,11.35
2022-07-25T18:41:30.097Z,9.33
2022-07-25T18:43:57.804Z,9.75
2022-07-25T18:46:25.249Z,6.57
2022-07-25T18:48:53.123Z,7.25
2022-07-25T18:51:20.847Z,5.85
2022-07-25T18:53:48.785Z,5.80
2022-07-25T18:56:16.087Z,6.80
2022-07-25T18:58:43.687Z,6.10
2022-07-25T19:01:11.266Z,7.55
2022-07-25T19:03:38.499Z,6.60
2022-07-25T19:06:06.733Z,5.72
2022-07-25T19:08:33.639Z,6.32
2022-07-25T19:11:00.700Z,5.20
2022-07-25T19:13:48.171Z,5.90
2022-07-25T19:16:15.496Z,6.10
2022-07-25T19:18:42.940Z,5.63
2022-07-25T19:21:09.994Z,3.30
2022-07-25T19:23:36.808Z,3.33
2022-07-25T19:26:04.312Z,5.25
2022-07-25T19:28:31.096Z,5.77
2022-07-25T19:30:58.055Z,5.50
2022-07-25T19:33:25.392Z,5.70
2022-07-25T19:36:01.817Z,10.33
2022-07-25T19:38:28.616Z,4.10
2022-07-25T19:40:55.455Z,4.33
2022-07-25T19:43:22.285Z,3.67
2022-07-25T19:45:49.265Z,4.73
2022-07-25T19:48:17.049Z,6.67
2022-07-25T19:50:44.676Z,7.80
2022-07-25T19:53:11.714Z,8.93
2022-07-25T19:55:38.600Z,4.97
2022-07-25T19:58:08.298Z,4.37
2022-07-25T20:00:35.313Z,3.60
2022-07-25T20:03:02.143Z,2.40
2022-07-25T20:05:29.244Z,2.30
2022-07-25T20:07:56.091Z,4.30
2022-07-25T20:10:24.005Z,3.67
2022-07-25T20:12:50.819Z,3.27
2022-07-25T20:15:17.692Z,5.83
2022-07-25T20:17:44.579Z,2.23
2022-07-25T20:20:11.989Z,3.83
2022-07-25T20:22:38.836Z,2.53
2022-07-25T20:25:07.557Z,4.20
2022-07-25T20:27:35.248Z,2.60
2022-07-25T20:30:03.764Z,6.77
2022-07-25T20:32:31.002Z,7.90
2022-07-25T20:34:58.776Z,4.97
2022-07-25T20:37:25.600Z,5.57
2022-07-25T20:39:53.220Z,5.60
2022-07-25T20:42:20.992Z,3.97
2022-07-25T20:44:47.885Z,4.33
2022-07-25T20:47:15.984Z,3.30
2022-07-25T20:49:43.613Z,3.70
2022-07-25T20:52:10.441Z,4.10
2022-07-25T20:54:37.405Z,3.87
2022-07-25T20:57:04.675Z,2.83
2022-07-25T20:59:32.064Z,4.03
2022-07-25T21:01:59.098Z,3.50
2022-07-25T21:04:26.031Z,4.20
2022-07-25T21:06:53.012Z,2.23
2022-07-25T21:09:23.480Z,3.63
2022-07-25T21:11:50.356Z,2.63
2022-07-25T21:14:17.179Z,4.93
2022-07-25T21:16:44.208Z,3.20
2022-07-25T21:19:11.463Z,4.43
2022-07-25T21:21:38.516Z,1.70
2022-07-25T21:24:06.448Z,3.30
2022-07-25T21:26:33.856Z,4.17
2022-07-25T21:29:00.924Z,3.43
2022-07-25T21:31:27.898Z,1.60
2022-07-25T21:33:54.713Z,2.67
2022-07-25T21:36:21.553Z,3.23
2022-07-25T21:38:48.320Z,4.90
2022-07-25T21:41:15.416Z,4.47
2022-07-25T21:43:42.337Z,1.73
2022-07-25T21:46:09.228Z,5.63
2022-07-25T21:48:54.585Z,1.57
2022-07-25T21:51:22.904Z,3.07
2022-07-25T21:53:51.788Z,6.27
2022-07-25T21:56:20.005Z,1.73
2022-07-25T21:58:46.822Z,3.13
2022-07-25T22:01:14.561Z,1.60
2022-07-25T22:03:41.541Z,2.43
2022-07-25T22:06:10.097Z,2.10
2022-07-25T22:08:37.271Z,1.87
2022-07-25T22:11:15.699Z,2.60
2022-07-25T22:13:43.541Z,2.60
2022-07-25T22:16:10.486Z,4.93
2022-07-25T22:18:37.414Z,2.97
2022-07-25T22:21:04.235Z,1.97
2022-07-25T22:23:31.051Z,2.60
2022-07-25T22:25:58.014Z,3.50
2022-07-25T22:28:25.102Z,2.53
2022-07-25T22:30:51.925Z,1.67
2022-07-25T22:33:18.781Z,3.70
2022-07-25T22:35:45.552Z,2.13
2022-07-25T22:38:12.422Z,2.83
2022-07-25T22:40:39.230Z,3.53
2022-07-25T22:43:06.233Z,5.03
2022-07-25T22:45:33.226Z,3.47
2022-07-25T22:48:00.110Z,2.27
2022-07-25T22:50:26.990Z,4.73
2022-07-25T22:52:53.799Z,5.60
2022-07-25T22:55:20.788Z,1.20
2022-07-25T22:57:49.610Z,4.17
2022-07-25T23:00:17.180Z,1.73
2022-07-25T23:02:44.054Z,2.83
2022-07-25T23:05:10.936Z,3.90
2022-07-25T23:07:37.866Z,2.83
2022-07-25T23:10:06.246Z,3.90
2022-07-25T23:12:33.512Z,2.03
2022-07-25T23:15:00.439Z,3.10
2022-07-25T23:17:27.338Z,2.50
2022-07-25T23:19:55.975Z,2.77
2022-07-25T23:22:25.115Z,3.27
2022-07-25T23:24:52.152Z,4.80
2022-07-25T23:27:19.213Z,5.83
2022-07-25T23:29:46.067Z,2.67
2022-07-25T23:32:12.979Z,2.00
2022-07-25T23:34:40.255Z,2.70
2022-07-25T23:37:07.242Z,3.33
2022-07-25T23:39:34.065Z,2.70
2022-07-25T23:42:01.102Z,4.07
2022-07-25T23:44:29.060Z,3.70
2022-07-25T23:46:57.344Z,2.73
2022-07-25T23:49:24.373Z,2.23
2022-07-25T23:51:51.446Z,2.67
2022-07-25T23:54:18.261Z,2.43
2022-07-25T23:56:45.254Z,2.40
2022-07-25T23:59:12.186Z,3.00
